Briefing drone pour Voiron

Rechercher une autre localisation

Conditions de vol :


Nous sommes le : Mercredi 08 décembre 2021
Il est 21:38 UTC (22:38 LT)

Lever de soleil : 06:38 UTC (07:38 LT)
Coucher de soleil : 16:20 UTC (17:20 LT)

Météo

L'essentiel des conditions de vol

VIGILANCE MÉTÉO FRANCE - Isère (38)
Vigilance Jaune : Avalanches / Neige-verglas
METAR de LFLS
LFLS 082130Z AUTO 11003KT 080V160 7000 FEW010 SCT021 BKN029 01/01 Q1005

Date d'émission: 08/12/2021
Heure d'émission: 21:30 UTC
Vent: 110° (variable du 080° au 160°) pour 3 KT (6 km/h)
Visibilité horizontale: 7000 m
Plafond :
- Peu de nuages à 1000ft (305m)
- Nuages épars à 2100ft (640m)
- Nuages morcelés à 2900ft (884m)
Température: 1 °C
Point de rosée: 1 °C
Humidité: 100%
Pression (QNH): 1005 hPa
TAF de LFLS
LFLS 082005Z 0820/0915 CNL

Conditions prévues :

Heure d'émission : Bulletin éffectué le 08 à 20:00 UTC
Prévision : Valide du 08 a 20:00 UTC au 09 a 15:00 UTC
Nuages : à 0ft (0 m)
WEBCAM POUR VOIRON

Réglementation

Voler en sécurité

CARTES AERONAUTIQUE 1/500.000
CARTES VAC (LFLS)
SUP AIP




Chargement des AIP...
NOTAM (VOIRON + Terrain à proximité / FIR )




Chargement des NOTAMS...
CONTACT PREFECTURE 38


Avertissement : Les données mises à disposition sont indicatives. Oxygène Drone ne pourra être tenu responsable de dégâts causés aux biens et aux personnes.